createdAt,value
2018-08-13T00:01:05.803Z,18.43
2018-08-13T00:03:34.572Z,18.39
2018-08-13T00:06:03.231Z,18.27
2018-08-13T00:08:32.141Z,18.31
2018-08-13T00:11:00.775Z,18.34
2018-08-13T00:13:29.788Z,18.37
2018-08-13T00:15:58.654Z,18.22
2018-08-13T00:18:27.311Z,18.18
2018-08-13T00:20:56.344Z,18.08
2018-08-13T00:23:24.958Z,17.97
2018-08-13T00:25:53.568Z,17.95
2018-08-13T00:28:23.010Z,17.87
2018-08-13T00:30:51.689Z,17.85
2018-08-13T00:33:20.286Z,17.77
2018-08-13T00:35:48.919Z,17.81
2018-08-13T00:38:17.558Z,17.77
2018-08-13T00:40:47.387Z,17.79
2018-08-13T00:43:16.214Z,17.79
2018-08-13T00:45:44.850Z,17.81
2018-08-13T00:48:13.444Z,17.82
2018-08-13T00:50:42.099Z,17.88
2018-08-13T00:53:10.810Z,17.86
2018-08-13T00:55:39.453Z,17.73
2018-08-13T00:58:08.100Z,17.75
2018-08-13T01:00:36.770Z,17.77
2018-08-13T01:03:06.446Z,17.82
2018-08-13T01:05:36.073Z,17.70
2018-08-13T01:08:04.840Z,17.64
2018-08-13T01:10:33.873Z,17.59
2018-08-13T01:13:02.729Z,17.55
2018-08-13T01:15:31.347Z,17.51
2018-08-13T01:18:00.642Z,17.50
2018-08-13T01:20:29.368Z,17.53
2018-08-13T01:22:58.092Z,17.61
2018-08-13T01:25:27.093Z,17.65
2018-08-13T01:27:55.971Z,17.62
2018-08-13T01:30:24.980Z,17.58
2018-08-13T01:32:53.649Z,17.44
2018-08-13T01:35:22.424Z,17.46
2018-08-13T01:37:51.026Z,17.38
2018-08-13T01:40:19.621Z,17.23
2018-08-13T01:42:48.324Z,17.03
2018-08-13T01:45:16.942Z,16.95
2018-08-13T01:47:45.650Z,17.03
2018-08-13T01:50:14.269Z,16.98
2018-08-13T01:52:43.159Z,16.98
2018-08-13T01:55:12.397Z,16.95
2018-08-13T01:57:41.008Z,16.88
2018-08-13T02:00:14.747Z,16.89
2018-08-13T02:02:43.690Z,16.77
2018-08-13T02:05:12.303Z,16.85
2018-08-13T02:07:40.981Z,16.80
2018-08-13T02:10:11.472Z,16.65
2018-08-13T02:12:40.465Z,16.59
2018-08-13T02:15:09.744Z,16.55
2018-08-13T02:17:38.432Z,16.53
2018-08-13T02:20:08.230Z,16.54
2018-08-13T02:22:37.225Z,16.56
2018-08-13T02:25:06.936Z,16.66
2018-08-13T02:27:35.629Z,16.71
2018-08-13T02:30:06.274Z,16.61
2018-08-13T02:32:34.907Z,16.58
2018-08-13T02:35:03.596Z,16.51
2018-08-13T02:37:32.910Z,16.54
2018-08-13T02:40:01.601Z,16.52
2018-08-13T02:42:30.643Z,16.45
2018-08-13T02:44:59.608Z,16.35
2018-08-13T02:47:28.219Z,16.33
2018-08-13T02:49:56.894Z,16.37
2018-08-13T02:52:25.790Z,16.50
2018-08-13T02:54:54.669Z,16.43
2018-08-13T02:57:23.465Z,16.34
2018-08-13T02:59:52.133Z,16.35
2018-08-13T03:02:21.584Z,16.25
2018-08-13T03:04:50.683Z,16.13
2018-08-13T03:07:19.432Z,16.04
2018-08-13T03:09:48.093Z,15.95
2018-08-13T03:12:16.711Z,15.85
2018-08-13T03:14:45.371Z,15.77
2018-08-13T03:17:14.037Z,15.73
2018-08-13T03:19:43.022Z,15.83
2018-08-13T03:22:11.662Z,15.77
2018-08-13T03:24:40.368Z,15.69
2018-08-13T03:27:09.088Z,15.60
2018-08-13T03:29:37.732Z,15.53
2018-08-13T03:32:06.372Z,15.48
2018-08-13T03:34:35.355Z,15.46
2018-08-13T03:37:04.005Z,15.43
2018-08-13T03:39:32.777Z,15.38
2018-08-13T03:42:01.445Z,15.36
2018-08-13T03:44:30.056Z,15.31
2018-08-13T03:46:58.688Z,15.34
2018-08-13T03:49:27.483Z,15.39
2018-08-13T03:51:56.140Z,15.45
2018-08-13T03:54:25.097Z,15.60
2018-08-13T03:56:53.820Z,15.51
2018-08-13T03:59:22.884Z,15.54
2018-08-13T04:01:51.500Z,15.47
2018-08-13T04:04:20.245Z,15.38
2018-08-13T04:06:48.859Z,15.32
2018-08-13T04:09:17.478Z,15.28
2018-08-13T04:11:46.109Z,15.27
2018-08-13T04:14:15.019Z,15.29
2018-08-13T04:16:48.088Z,15.37
2018-08-13T04:19:16.720Z,15.53
2018-08-13T04:21:45.356Z,15.71
2018-08-13T04:24:14.362Z,15.82
2018-08-13T04:26:43.021Z,16.02
2018-08-13T04:29:11.685Z,16.12
2018-08-13T04:31:40.308Z,16.20
2018-08-13T04:34:09.045Z,16.29
2018-08-13T04:36:37.669Z,16.40
2018-08-13T04:39:10.008Z,16.69
2018-08-13T04:41:38.738Z,16.76
2018-08-13T04:44:07.696Z,16.84
2018-08-13T04:46:36.366Z,16.99
2018-08-13T04:49:05.128Z,17.19
2018-08-13T04:51:34.121Z,17.41
2018-08-13T04:54:02.804Z,17.61
2018-08-13T04:56:31.432Z,17.83
2018-08-13T04:59:00.861Z,18.08
2018-08-13T05:01:29.622Z,18.34
2018-08-13T05:03:58.736Z,18.60
2018-08-13T05:06:27.678Z,18.97
2018-08-13T05:08:56.349Z,19.43
2018-08-13T05:11:24.948Z,19.95
2018-08-13T05:13:53.564Z,20.30
2018-08-13T05:16:22.543Z,20.66
2018-08-13T05:18:51.177Z,21.39
2018-08-13T05:21:20.473Z,22.20
2018-08-13T05:23:49.849Z,23.14
2018-08-13T05:26:19.257Z,24.36
2018-08-13T05:28:48.447Z,25.69
2018-08-13T05:31:17.711Z,26.89
2018-08-13T05:33:46.942Z,27.39
2018-08-13T05:36:16.143Z,28.39
2018-08-13T05:38:45.375Z,29.70
2018-08-13T05:41:14.964Z,30.99
2018-08-13T05:43:44.252Z,31.99
2018-08-13T05:46:13.474Z,32.79
2018-08-13T05:48:42.793Z,33.16
2018-08-13T05:51:12.877Z,32.91
2018-08-13T05:53:42.105Z,33.28
2018-08-13T05:56:11.340Z,33.66
2018-08-13T05:58:40.553Z,34.14
2018-08-13T06:01:09.757Z,34.69
2018-08-13T06:03:38.964Z,35.38
2018-08-13T06:06:08.252Z,35.99
2018-08-13T06:08:37.520Z,35.67
2018-08-13T06:11:06.737Z,35.93
2018-08-13T06:13:36.145Z,36.82
2018-08-13T06:16:05.940Z,37.45
2018-08-13T06:18:35.143Z,37.89
2018-08-13T06:21:04.461Z,38.39
2018-08-13T06:23:33.667Z,38.30
2018-08-13T06:26:02.895Z,38.39
2018-08-13T06:28:32.092Z,39.02
2018-08-13T06:31:01.311Z,39.85
2018-08-13T06:33:30.623Z,40.64
2018-08-13T06:35:59.562Z,40.60
2018-08-13T06:38:28.728Z,40.61
2018-08-13T06:40:58.176Z,41.90
2018-08-13T06:43:27.091Z,42.91
2018-08-13T06:45:56.069Z,42.53
2018-08-13T06:48:25.657Z,42.68
2018-08-13T06:50:54.584Z,42.68
2018-08-13T06:53:23.705Z,41.57
2018-08-13T06:55:52.645Z,41.28
2018-08-13T06:58:22.212Z,41.77
2018-08-13T07:00:51.613Z,42.06
2018-08-13T07:03:20.746Z,42.01
2018-08-13T07:05:49.749Z,41.21
2018-08-13T07:08:18.965Z,41.04
2018-08-13T07:10:48.047Z,43.12
2018-08-13T07:13:17.021Z,44.75
2018-08-13T07:15:46.322Z,46.11
2018-08-13T07:18:15.465Z,45.93
2018-08-13T07:20:44.415Z,46.48
2018-08-13T07:23:13.391Z,46.80
2018-08-13T07:25:42.621Z,46.91
2018-08-13T07:28:11.562Z,46.62
2018-08-13T07:30:40.822Z,47.32
2018-08-13T07:33:09.788Z,47.46
2018-08-13T07:35:38.772Z,47.12
2018-08-13T07:38:07.727Z,46.69
2018-08-13T07:40:36.760Z,47.03
2018-08-13T07:43:06.074Z,47.30
2018-08-13T07:45:35.695Z,47.64
2018-08-13T07:48:05.096Z,48.20
2018-08-13T07:50:34.366Z,48.62
2018-08-13T07:53:03.290Z,49.35
2018-08-13T07:55:32.326Z,49.16
2018-08-13T07:58:01.599Z,48.44
2018-08-13T08:00:30.924Z,48.52
2018-08-13T08:02:59.869Z,48.69
2018-08-13T08:05:28.848Z,48.47
2018-08-13T08:07:57.879Z,47.95
2018-08-13T08:10:26.828Z,47.27
2018-08-13T08:12:56.080Z,46.87
2018-08-13T08:15:25.140Z,46.98
2018-08-13T08:17:54.057Z,47.43
2018-08-13T08:20:23.190Z,47.55
2018-08-13T08:22:52.153Z,47.94
2018-08-13T08:25:22.416Z,48.42
2018-08-13T08:27:51.373Z,47.67
2018-08-13T08:30:20.461Z,47.76
2018-08-13T08:32:50.200Z,47.43
2018-08-13T08:35:19.183Z,47.95
2018-08-13T08:37:48.227Z,48.77
2018-08-13T08:40:19.236Z,47.72
2018-08-13T08:42:48.862Z,47.55
2018-08-13T08:45:21.920Z,47.86
2018-08-13T08:47:51.729Z,47.61
2018-08-13T08:50:20.770Z,47.16
2018-08-13T08:52:49.787Z,48.02
2018-08-13T08:55:19.375Z,47.65
2018-08-13T08:57:49.528Z,47.61
2018-08-13T09:00:20.083Z,47.20
2018-08-13T09:02:49.134Z,46.71
2018-08-13T09:05:18.076Z,46.33
2018-08-13T09:07:47.303Z,45.80
2018-08-13T09:10:16.513Z,45.52
2018-08-13T09:12:45.555Z,45.05
2018-08-13T09:15:16.195Z,42.35
2018-08-13T09:17:57.416Z,40.43
2018-08-13T09:20:37.515Z,39.52
2018-08-13T09:23:17.732Z,38.46
2018-08-13T09:25:57.799Z,37.75
2018-08-13T09:28:37.999Z,37.10
2018-08-13T09:31:25.438Z,36.54
2018-08-13T09:34:05.612Z,35.98
2018-08-13T09:36:34.927Z,35.72
2018-08-13T09:39:04.848Z,35.55
2018-08-13T09:41:34.837Z,35.54
2018-08-13T09:44:04.167Z,35.49
2018-08-13T09:46:33.743Z,35.29
2018-08-13T09:49:03.034Z,34.81
2018-08-13T09:51:32.287Z,34.80
2018-08-13T09:54:01.506Z,34.80
2018-08-13T09:56:30.758Z,34.67
2018-08-13T09:59:00.012Z,34.73
2018-08-13T10:01:29.331Z,34.79
2018-08-13T10:03:58.570Z,34.83
2018-08-13T10:06:28.128Z,34.85
2018-08-13T10:08:57.325Z,34.58
2018-08-13T10:11:26.523Z,34.39
2018-08-13T10:13:55.763Z,34.49
2018-08-13T10:16:25.048Z,34.49
2018-08-13T10:18:54.241Z,34.48
2018-08-13T10:21:23.981Z,34.34
2018-08-13T10:23:53.228Z,34.44
2018-08-13T10:26:22.607Z,34.55
2018-08-13T10:28:51.799Z,34.65
2018-08-13T10:31:21.252Z,34.69
2018-08-13T10:33:50.456Z,34.75
2018-08-13T10:36:19.649Z,34.72
2018-08-13T10:38:48.896Z,34.65
2018-08-13T10:41:18.912Z,34.44
2018-08-13T10:43:48.090Z,34.22
2018-08-13T10:46:17.796Z,33.71
2018-08-13T10:48:47.105Z,33.61
2018-08-13T10:51:16.358Z,33.58
2018-08-13T10:53:45.625Z,33.71
2018-08-13T10:56:14.875Z,33.67
2018-08-13T10:58:44.395Z,33.68
2018-08-13T11:01:14.243Z,33.68
2018-08-13T11:03:43.576Z,33.62
2018-08-13T11:06:13.050Z,33.62
2018-08-13T11:08:42.262Z,33.62
2018-08-13T11:11:11.480Z,33.65
2018-08-13T11:13:40.674Z,33.63
2018-08-13T11:16:09.897Z,33.44
2018-08-13T11:18:39.094Z,33.40
2018-08-13T11:21:08.318Z,33.28
2018-08-13T11:23:37.618Z,32.99
2018-08-13T11:26:07.064Z,33.03
2018-08-13T11:28:36.399Z,33.05
2018-08-13T11:31:06.349Z,33.08
2018-08-13T11:33:35.866Z,33.14
2018-08-13T11:36:05.109Z,33.15
2018-08-13T11:38:34.335Z,33.10
2018-08-13T11:41:04.719Z,33.08
2018-08-13T11:43:34.288Z,33.06
2018-08-13T11:46:03.552Z,32.93
2018-08-13T11:48:33.180Z,32.87
2018-08-13T11:51:02.740Z,32.86
2018-08-13T11:53:31.917Z,32.91
2018-08-13T11:56:01.133Z,32.98
2018-08-13T11:58:30.353Z,33.07
2018-08-13T12:00:59.584Z,33.01
2018-08-13T12:03:28.963Z,32.86
2018-08-13T12:05:58.185Z,32.84
2018-08-13T12:08:27.708Z,32.84
2018-08-13T12:10:57.108Z,32.86
2018-08-13T12:13:26.441Z,32.88
2018-08-13T12:15:55.665Z,32.97
2018-08-13T12:18:25.121Z,33.11
2018-08-13T12:20:54.301Z,33.20
2018-08-13T12:23:23.713Z,33.22
2018-08-13T12:25:52.944Z,33.16
2018-08-13T12:28:22.194Z,33.03
2018-08-13T12:30:51.381Z,32.94
2018-08-13T12:33:20.585Z,32.88
2018-08-13T12:35:50.032Z,32.86
2018-08-13T12:38:19.334Z,32.86
2018-08-13T12:40:48.541Z,32.97
2018-08-13T12:43:18.206Z,32.92
2018-08-13T12:45:47.459Z,32.94
2018-08-13T12:48:16.641Z,32.87
2018-08-13T12:50:45.901Z,32.90
2018-08-13T12:53:15.108Z,32.96
2018-08-13T12:55:44.288Z,33.04
2018-08-13T12:58:13.509Z,33.08
2018-08-13T13:00:42.830Z,33.11
2018-08-13T13:03:12.064Z,33.11
2018-08-13T13:05:41.237Z,33.17
2018-08-13T13:08:10.455Z,33.20
2018-08-13T13:10:39.621Z,33.25
2018-08-13T13:13:08.845Z,33.33
2018-08-13T13:15:38.084Z,33.35
2018-08-13T13:18:07.328Z,33.38
2018-08-13T13:20:36.594Z,33.44
2018-08-13T13:23:05.947Z,33.49
2018-08-13T13:25:35.144Z,33.49
2018-08-13T13:28:04.469Z,33.40
2018-08-13T13:30:33.999Z,33.44
2018-08-13T13:33:03.226Z,33.39
2018-08-13T13:35:32.397Z,33.32
2018-08-13T13:38:01.747Z,33.22
2018-08-13T13:40:31.048Z,33.21
2018-08-13T13:43:00.700Z,33.28
2018-08-13T13:45:29.876Z,33.34
2018-08-13T13:47:59.052Z,33.39
2018-08-13T13:50:28.233Z,33.41
2018-08-13T13:52:57.461Z,33.45
2018-08-13T13:55:26.929Z,33.43
2018-08-13T13:57:56.110Z,33.44
2018-08-13T14:00:25.379Z,33.48
2018-08-13T14:02:54.586Z,33.50
2018-08-13T14:08:10.232Z,33.57
2018-08-13T14:10:39.503Z,33.60
2018-08-13T14:13:08.703Z,33.68
2018-08-13T14:15:38.148Z,33.60
2018-08-13T14:18:07.371Z,33.64
2018-08-13T14:20:36.914Z,33.68
2018-08-13T14:23:06.217Z,33.54
2018-08-13T14:25:35.405Z,33.54
2018-08-13T14:28:04.716Z,33.57
2018-08-13T14:30:34.165Z,33.57
2018-08-13T14:33:04.141Z,33.42
2018-08-13T14:35:33.380Z,33.40
2018-08-13T14:38:02.612Z,33.40
2018-08-13T14:40:32.223Z,33.38
2018-08-13T14:43:01.815Z,33.29
2018-08-13T14:45:31.344Z,33.20
2018-08-13T14:48:00.663Z,33.18
2018-08-13T14:50:29.993Z,33.16
2018-08-13T14:52:59.577Z,33.14
2018-08-13T14:55:28.921Z,33.16
2018-08-13T14:57:58.212Z,33.17
2018-08-13T15:00:34.847Z,33.21
2018-08-13T15:03:04.400Z,33.20
2018-08-13T15:05:33.827Z,33.23
2018-08-13T15:08:03.684Z,33.20
2018-08-13T15:10:32.928Z,33.20
2018-08-13T15:13:02.307Z,33.14
2018-08-13T15:15:31.695Z,33.09
2018-08-13T15:18:01.072Z,33.03
2018-08-13T15:20:31.621Z,32.99
2018-08-13T15:23:00.919Z,32.98
2018-08-13T15:25:30.428Z,33.03
2018-08-13T15:27:59.859Z,33.01
2018-08-13T15:30:29.208Z,32.99
2018-08-13T15:32:58.523Z,32.93
2018-08-13T15:35:27.760Z,32.87
2018-08-13T15:37:56.938Z,32.86
2018-08-13T15:40:26.191Z,32.86
2018-08-13T15:42:55.466Z,32.78
2018-08-13T15:45:25.278Z,32.76
2018-08-13T15:47:54.643Z,32.76
2018-08-13T15:50:24.489Z,32.68
2018-08-13T15:52:53.794Z,32.62
2018-08-13T15:55:23.396Z,32.60
2018-08-13T15:57:52.821Z,32.56
2018-08-13T16:00:25.154Z,32.54
2018-08-13T16:02:54.516Z,32.51
2018-08-13T16:05:23.956Z,32.47
2018-08-13T16:07:53.708Z,32.37
2018-08-13T16:10:23.072Z,32.33
2018-08-13T16:12:52.367Z,32.27
2018-08-13T16:15:22.034Z,32.16
2018-08-13T16:17:51.560Z,32.10
2018-08-13T16:20:20.796Z,31.98
2018-08-13T16:22:50.276Z,31.93
2018-08-13T16:25:20.208Z,31.92
2018-08-13T16:27:49.488Z,31.90
2018-08-13T16:30:21.291Z,31.90
2018-08-13T16:32:50.685Z,31.92
2018-08-13T16:35:20.322Z,31.93
2018-08-13T16:37:49.877Z,31.92
2018-08-13T16:40:19.780Z,31.90
2018-08-13T16:42:49.692Z,31.83
2018-08-13T16:45:20.064Z,31.78
2018-08-13T16:47:49.425Z,31.64
2018-08-13T16:50:32.158Z,31.58
2018-08-13T16:53:02.002Z,31.42
2018-08-13T16:55:32.676Z,31.36
2018-08-13T16:58:02.656Z,31.36
2018-08-13T17:00:32.765Z,31.26
2018-08-13T17:03:02.682Z,31.14
2018-08-13T17:05:58.561Z,31.00
2018-08-13T17:08:27.860Z,30.88
2018-08-13T17:11:16.006Z,30.77
2018-08-13T17:13:45.324Z,30.75
2018-08-13T17:16:14.563Z,30.67
2018-08-13T17:18:43.788Z,30.56
2018-08-13T17:21:13.240Z,30.49
2018-08-13T17:23:42.544Z,30.39
2018-08-13T17:26:12.101Z,30.28
2018-08-13T17:28:41.340Z,30.23
2018-08-13T17:31:10.873Z,30.12
2018-08-13T17:33:40.047Z,29.94
2018-08-13T17:36:09.249Z,29.81
2018-08-13T17:38:38.518Z,29.70
2018-08-13T17:41:09.065Z,29.62
2018-08-13T17:43:38.317Z,29.59
2018-08-13T17:46:07.975Z,29.60
2018-08-13T17:48:37.292Z,29.59
2018-08-13T17:51:06.648Z,29.59
2018-08-13T17:53:36.052Z,29.58
2018-08-13T17:56:05.350Z,29.61
2018-08-13T17:58:34.645Z,29.62
2018-08-13T18:01:04.017Z,29.56
2018-08-13T18:03:33.262Z,29.51
2018-08-13T18:06:02.556Z,29.43
2018-08-13T18:08:31.775Z,29.45
2018-08-13T18:11:00.989Z,29.41
2018-08-13T18:13:30.846Z,29.39
2018-08-13T18:16:00.082Z,29.33
2018-08-13T18:18:29.575Z,29.23
2018-08-13T18:20:58.838Z,29.21
2018-08-13T18:23:28.029Z,29.14
2018-08-13T18:25:57.752Z,29.01
2018-08-13T18:28:27.378Z,28.92
2018-08-13T18:30:56.621Z,28.91
2018-08-13T18:33:25.987Z,28.84
2018-08-13T18:35:55.276Z,28.75
2018-08-13T18:38:24.791Z,28.74
2018-08-13T18:40:54.137Z,28.69
2018-08-13T18:43:23.465Z,28.65
2018-08-13T18:45:52.666Z,28.64
2018-08-13T18:48:21.866Z,28.63
2018-08-13T18:50:51.086Z,28.57
2018-08-13T18:53:20.283Z,28.54
2018-08-13T18:55:49.892Z,28.52
2018-08-13T18:58:19.123Z,28.47
2018-08-13T19:00:51.685Z,28.38
2018-08-13T19:03:21.252Z,28.34
2018-08-13T19:05:50.541Z,28.24
2018-08-13T19:08:19.783Z,28.19
2018-08-13T19:10:49.057Z,28.13
2018-08-13T19:13:18.336Z,28.07
2018-08-13T19:16:02.810Z,28.02
2018-08-13T19:18:32.240Z,27.97
2018-08-13T19:21:01.552Z,27.90
2018-08-13T19:23:30.800Z,27.84
2018-08-13T19:26:00.023Z,27.78
2018-08-13T19:28:29.199Z,27.76
2018-08-13T19:30:58.728Z,27.73
2018-08-13T19:33:27.975Z,27.68
2018-08-13T19:35:57.458Z,27.62
2018-08-13T19:38:26.982Z,27.59
2018-08-13T19:40:56.193Z,27.53
2018-08-13T19:43:25.725Z,27.48
2018-08-13T19:45:54.957Z,27.47
2018-08-13T19:48:24.478Z,27.44
2018-08-13T19:50:53.708Z,27.36
2018-08-13T19:53:22.995Z,27.32
2018-08-13T19:55:52.221Z,27.30
2018-08-13T19:58:21.748Z,27.27
2018-08-13T20:00:50.988Z,27.20
2018-08-13T20:03:20.560Z,27.18
2018-08-13T20:05:49.752Z,27.16
2018-08-13T20:08:19.008Z,27.14
2018-08-13T20:10:48.666Z,27.17
2018-08-13T20:13:17.956Z,27.19
2018-08-13T20:15:47.208Z,27.22
2018-08-13T20:18:16.457Z,27.27
2018-08-13T20:20:45.767Z,27.26
2018-08-13T20:23:15.019Z,27.30
2018-08-13T20:25:44.248Z,27.33
2018-08-13T20:28:13.512Z,27.33
2018-08-13T20:30:43.193Z,27.24
2018-08-13T20:33:12.390Z,27.04
2018-08-13T20:35:41.727Z,26.91
2018-08-13T20:38:10.998Z,26.85
2018-08-13T20:40:40.226Z,26.76
2018-08-13T20:43:09.794Z,26.70
2018-08-13T20:45:39.006Z,26.65
2018-08-13T20:48:08.302Z,26.65
2018-08-13T20:50:37.975Z,26.65
2018-08-13T20:53:07.192Z,26.60
2018-08-13T20:55:36.401Z,26.57
2018-08-13T20:58:05.654Z,26.52
2018-08-13T21:00:35.183Z,26.45
2018-08-13T21:03:04.516Z,26.35
2018-08-13T21:05:33.742Z,26.31
2018-08-13T21:08:02.970Z,26.25
2018-08-13T21:10:32.196Z,26.19
2018-08-13T21:13:01.739Z,26.13
2018-08-13T21:15:30.981Z,26.04
2018-08-13T21:18:00.184Z,26.03
2018-08-13T21:20:29.950Z,25.95
2018-08-13T21:22:59.548Z,25.86
2018-08-13T21:25:28.809Z,25.80
2018-08-13T21:27:58.513Z,25.79
2018-08-13T21:30:27.717Z,25.77
2018-08-13T21:32:56.896Z,25.70
2018-08-13T21:35:26.861Z,25.57
2018-08-13T21:37:56.120Z,25.53
2018-08-13T21:40:25.631Z,25.48
2018-08-13T21:42:54.883Z,25.46
2018-08-13T21:45:24.336Z,25.41
2018-08-13T21:47:53.849Z,25.39
2018-08-13T21:50:23.921Z,25.34
2018-08-13T21:52:53.562Z,25.25
2018-08-13T21:55:22.877Z,25.25
2018-08-13T21:57:52.347Z,25.19
2018-08-13T22:00:26.384Z,25.11
2018-08-13T22:02:56.288Z,25.05
2018-08-13T22:05:25.864Z,25.00
2018-08-13T22:07:55.658Z,24.93
2018-08-13T22:10:25.401Z,24.82
2018-08-13T22:12:54.704Z,24.66
2018-08-13T22:15:28.794Z,24.55
2018-08-13T22:17:59.579Z,24.49
2018-08-13T22:20:29.939Z,24.42
2018-08-13T22:23:00.246Z,24.33
2018-08-13T22:25:31.331Z,24.30
2018-08-13T22:28:00.766Z,24.24
2018-08-13T22:30:31.726Z,24.07
2018-08-13T22:33:00.990Z,24.03
2018-08-13T22:35:30.211Z,24.06
2018-08-13T22:37:59.529Z,23.93
2018-08-13T22:40:28.802Z,23.73
2018-08-13T22:42:58.015Z,23.62
2018-08-13T22:45:27.277Z,23.51
2018-08-13T22:47:56.477Z,23.46
2018-08-13T22:50:26.171Z,23.44
2018-08-13T22:52:55.644Z,23.52
2018-08-13T22:55:25.301Z,23.60
2018-08-13T22:57:54.579Z,23.61
2018-08-13T23:00:24.839Z,23.55
2018-08-13T23:02:54.078Z,23.32
2018-08-13T23:05:25.473Z,23.11
2018-08-13T23:07:54.770Z,22.97
2018-08-13T23:10:25.015Z,22.78
2018-08-13T23:12:55.790Z,22.71
2018-08-13T23:15:25.485Z,22.68
2018-08-13T23:17:55.197Z,22.54
2018-08-13T23:20:27.804Z,22.28
2018-08-13T23:23:00.252Z,22.10
2018-08-13T23:25:30.326Z,22.14
2018-08-13T23:28:00.802Z,22.21
2018-08-13T23:30:30.216Z,22.20
2018-08-13T23:32:59.824Z,22.18
2018-08-13T23:35:29.857Z,22.15
2018-08-13T23:37:58.652Z,22.12
2018-08-13T23:40:27.483Z,22.01
2018-08-13T23:42:56.387Z,21.92
2018-08-13T23:45:26.564Z,21.86
2018-08-13T23:47:55.669Z,21.87
2018-08-13T23:50:26.173Z,21.73
2018-08-13T23:52:57.638Z,21.52
2018-08-13T23:55:38.351Z,21.30
2018-08-13T23:58:14.922Z,21.28
